createdAt,value
2022-11-20T00:01:22.902Z,18.38
2022-11-20T00:03:51.342Z,18.50
2022-11-20T00:06:19.533Z,15.80
2022-11-20T00:08:47.023Z,19.30
2022-11-20T00:11:21.475Z,17.70
2022-11-20T00:13:50.043Z,16.05
2022-11-20T00:16:19.813Z,13.73
2022-11-20T00:18:46.882Z,17.45
2022-11-20T00:21:16.278Z,15.50
2022-11-20T00:23:44.011Z,14.75
2022-11-20T00:26:13.859Z,14.23
2022-11-20T00:28:41.576Z,14.02
2022-11-20T00:31:13.849Z,15.57
2022-11-20T00:33:41.153Z,14.55
2022-11-20T00:36:10.279Z,16.15
2022-11-20T00:38:36.985Z,13.25
2022-11-20T00:41:09.060Z,12.27
2022-11-20T00:43:36.684Z,12.60
2022-11-20T00:46:04.886Z,12.23
2022-11-20T00:48:32.083Z,13.43
2022-11-20T00:50:59.023Z,11.13
2022-11-20T00:53:26.601Z,15.90
2022-11-20T00:56:00.851Z,13.45
2022-11-20T00:58:31.622Z,13.00
2022-11-20T01:01:12.000Z,13.45
2022-11-20T01:03:41.059Z,15.13
2022-11-20T01:06:12.513Z,11.57
2022-11-20T01:08:39.341Z,12.23
2022-11-20T01:11:09.958Z,10.85
2022-11-20T01:13:38.101Z,13.52
2022-11-20T01:16:05.859Z,11.50
2022-11-20T01:18:32.897Z,13.18
2022-11-20T01:21:08.550Z,11.75
2022-11-20T01:23:37.424Z,15.98
2022-11-20T01:26:10.624Z,11.52
2022-11-20T01:28:37.371Z,17.05
2022-11-20T01:31:14.373Z,10.07
2022-11-20T01:33:42.148Z,11.18
2022-11-20T01:36:10.561Z,9.32
2022-11-20T01:38:37.219Z,10.85
2022-11-20T01:41:04.699Z,12.02
2022-11-20T01:43:32.225Z,15.95
2022-11-20T01:46:19.816Z,15.07
2022-11-20T01:48:49.258Z,9.10
2022-11-20T01:51:40.156Z,9.65
2022-11-20T01:54:13.340Z,11.30
2022-11-20T01:56:44.801Z,14.68
2022-11-20T01:59:16.872Z,10.13
2022-11-20T02:01:43.486Z,13.65
2022-11-20T02:04:11.615Z,11.50
2022-11-20T02:06:51.006Z,11.88
2022-11-20T02:09:17.750Z,11.95
2022-11-20T02:11:44.562Z,11.25
2022-11-20T02:14:11.702Z,9.85
2022-11-20T02:16:45.110Z,11.63
2022-11-20T02:19:38.272Z,9.70
2022-11-20T02:22:17.325Z,11.60
2022-11-20T02:24:46.180Z,11.77
2022-11-20T02:27:15.200Z,12.15
2022-11-20T02:29:51.612Z,12.48
2022-11-20T02:32:29.474Z,12.00
2022-11-20T02:34:56.466Z,10.85
2022-11-20T02:37:24.117Z,11.35
2022-11-20T02:39:52.833Z,11.32
2022-11-20T02:42:20.033Z,11.93
2022-11-20T02:44:46.551Z,12.85
2022-11-20T02:47:13.265Z,11.23
2022-11-20T02:49:39.772Z,11.85
2022-11-20T02:52:06.343Z,13.73
2022-11-20T02:54:33.185Z,11.65
2022-11-20T02:56:59.775Z,9.13
2022-11-20T02:59:26.615Z,11.35
2022-11-20T03:01:53.259Z,9.32
2022-11-20T03:04:19.875Z,12.77
2022-11-20T03:06:46.587Z,11.38
2022-11-20T03:09:13.644Z,11.25
2022-11-20T03:11:40.275Z,11.27
2022-11-20T03:14:07.020Z,11.00
2022-11-20T03:16:33.922Z,10.20
2022-11-20T03:19:01.306Z,10.75
2022-11-20T03:21:28.046Z,11.40
2022-11-20T03:23:55.973Z,10.07
2022-11-20T03:26:25.090Z,12.10
2022-11-20T03:28:54.367Z,13.02
2022-11-20T03:31:24.091Z,11.30
2022-11-20T03:33:51.108Z,15.13
2022-11-20T03:36:19.197Z,13.82
2022-11-20T03:38:46.230Z,11.00
2022-11-20T03:41:18.093Z,12.15
2022-11-20T03:43:58.898Z,12.00
2022-11-20T03:46:26.202Z,10.95
2022-11-20T03:48:53.025Z,12.90
2022-11-20T03:51:22.241Z,12.93
2022-11-20T03:53:51.230Z,11.32
2022-11-20T03:56:20.579Z,12.68
2022-11-20T03:58:47.204Z,13.82
2022-11-20T04:01:19.675Z,12.68
2022-11-20T04:03:46.812Z,13.50
2022-11-20T04:06:16.510Z,11.25
2022-11-20T04:08:44.118Z,12.27
2022-11-20T04:11:11.564Z,11.25
2022-11-20T04:13:38.497Z,14.02
2022-11-20T04:16:06.428Z,14.30
2022-11-20T04:18:33.407Z,9.57
2022-11-20T04:21:00.500Z,12.68
2022-11-20T04:23:28.926Z,11.93
2022-11-20T04:25:55.895Z,11.98
2022-11-20T04:28:25.085Z,13.43
2022-11-20T04:30:51.591Z,14.13
2022-11-20T04:33:18.140Z,10.10
2022-11-20T04:35:48.294Z,13.52
2022-11-20T04:38:15.076Z,10.73
2022-11-20T04:40:41.600Z,14.85
2022-11-20T04:43:08.093Z,12.32
2022-11-20T04:45:35.354Z,12.63
2022-11-20T04:48:02.069Z,8.77
2022-11-20T04:50:28.684Z,12.55
2022-11-20T04:52:55.228Z,12.80
2022-11-20T04:55:21.752Z,14.70
2022-11-20T04:57:51.820Z,16.05
2022-11-20T05:00:18.536Z,13.40
2022-11-20T05:02:45.411Z,11.65
2022-11-20T05:05:11.908Z,12.52
2022-11-20T05:07:38.528Z,13.10
2022-11-20T05:10:05.584Z,13.35
2022-11-20T05:12:32.523Z,12.73
2022-11-20T05:14:59.351Z,13.75
2022-11-20T05:17:25.884Z,12.73
2022-11-20T05:19:53.312Z,12.50
2022-11-20T05:22:20.071Z,11.82
2022-11-20T05:24:46.712Z,11.57
2022-11-20T05:27:13.414Z,11.60
2022-11-20T05:29:40.197Z,10.48
2022-11-20T05:32:08.262Z,11.80
2022-11-20T05:39:13.347Z,13.60
2022-11-20T05:41:39.290Z,13.40
2022-11-20T05:44:05.178Z,10.43
2022-11-20T05:46:31.052Z,11.10
2022-11-20T05:48:58.192Z,11.27
2022-11-20T05:51:25.501Z,14.18
2022-11-20T05:53:51.426Z,11.65
2022-11-20T05:56:20.199Z,13.75
2022-11-20T06:03:55.512Z,12.43
2022-11-20T06:06:21.471Z,12.68
2022-11-20T06:08:47.821Z,11.80
2022-11-20T06:11:15.105Z,13.02
2022-11-20T06:13:42.690Z,11.77
2022-11-20T06:16:09.957Z,13.23
2022-11-20T06:18:35.997Z,12.20
2022-11-20T06:26:25.707Z,9.77
2022-11-20T06:28:52.295Z,12.23
2022-11-20T06:31:21.547Z,10.70
2022-11-20T06:33:48.424Z,10.20
2022-11-20T06:36:16.289Z,10.98
2022-11-20T06:38:42.600Z,12.57
2022-11-20T06:41:18.220Z,12.43
2022-11-20T06:43:44.988Z,12.32
2022-11-20T06:46:13.443Z,14.35
2022-11-20T06:48:41.082Z,11.07
2022-11-20T06:51:09.134Z,12.82
2022-11-20T06:53:36.813Z,12.70
2022-11-20T06:56:03.975Z,10.85
2022-11-20T06:58:32.714Z,8.68
2022-11-20T07:01:00.748Z,11.82
2022-11-20T07:03:27.434Z,12.23
2022-11-20T07:05:57.732Z,11.75
2022-11-20T07:08:25.318Z,11.35
2022-11-20T07:10:52.060Z,13.15
2022-11-20T07:13:18.633Z,12.68
2022-11-20T07:15:45.260Z,15.00
2022-11-20T07:18:12.245Z,13.18
2022-11-20T07:20:38.973Z,13.73
2022-11-20T07:23:05.680Z,11.43
2022-11-20T07:25:32.414Z,10.82
2022-11-20T07:28:00.069Z,8.95
2022-11-20T07:30:27.772Z,11.50
2022-11-20T07:32:56.471Z,12.07
2022-11-20T07:35:24.315Z,11.85
2022-11-20T07:37:51.117Z,10.65
2022-11-20T07:40:18.642Z,13.82
2022-11-20T07:42:50.164Z,12.70
2022-11-20T07:45:17.802Z,11.27
2022-11-20T07:47:44.686Z,10.60
2022-11-20T07:50:12.254Z,10.27
2022-11-20T07:52:39.117Z,10.57
2022-11-20T07:55:06.334Z,11.65
2022-11-20T07:57:32.976Z,13.40
2022-11-20T07:59:59.921Z,11.27
2022-11-20T08:02:26.584Z,10.15
2022-11-20T08:04:53.173Z,12.00
2022-11-20T08:07:19.849Z,15.43
2022-11-20T08:09:46.501Z,12.30
2022-11-20T08:12:39.781Z,13.30
2022-11-20T08:15:12.636Z,10.60
2022-11-20T08:17:39.897Z,11.63
2022-11-20T08:20:07.099Z,10.77
2022-11-20T08:22:33.743Z,17.45
2022-11-20T08:25:00.376Z,9.70
2022-11-20T08:27:27.342Z,11.77
2022-11-20T08:29:54.021Z,11.05
2022-11-20T08:32:20.630Z,15.75
2022-11-20T08:34:47.488Z,17.88
2022-11-20T08:37:14.071Z,15.60
2022-11-20T08:39:40.690Z,14.73
2022-11-20T08:42:10.186Z,21.88
2022-11-20T08:44:36.865Z,15.02
2022-11-20T08:47:03.495Z,16.35
2022-11-20T08:49:30.244Z,10.90
2022-11-20T08:51:58.308Z,14.10
2022-11-20T08:54:25.484Z,14.05
2022-11-20T08:56:52.594Z,12.45
2022-11-20T08:59:37.275Z,12.98
2022-11-20T09:02:06.983Z,10.90
2022-11-20T09:04:33.865Z,9.35
2022-11-20T09:07:01.695Z,14.05
2022-11-20T09:09:30.095Z,12.15
2022-11-20T09:11:57.154Z,11.90
2022-11-20T09:14:25.876Z,12.18
2022-11-20T09:16:52.856Z,11.13
2022-11-20T09:19:40.615Z,11.52
2022-11-20T09:22:06.824Z,17.80
2022-11-20T09:24:33.885Z,15.35
2022-11-20T09:27:03.427Z,16.65
2022-11-20T09:29:30.749Z,14.75
2022-11-20T09:31:57.723Z,11.27
2022-11-20T09:34:24.967Z,11.25
2022-11-20T09:36:51.903Z,11.95
2022-11-20T09:39:19.241Z,10.80
2022-11-20T09:41:55.632Z,12.18
2022-11-20T09:44:39.794Z,10.57
2022-11-20T09:47:13.849Z,11.40
2022-11-20T09:49:55.211Z,14.25
2022-11-20T09:52:40.524Z,10.80
2022-11-20T09:55:11.563Z,11.68
2022-11-20T09:57:42.615Z,12.38
2022-11-20T10:00:14.642Z,13.45
2022-11-20T10:02:53.163Z,10.13
2022-11-20T10:05:26.033Z,10.98
2022-11-20T10:08:01.174Z,9.38
2022-11-20T10:10:30.828Z,10.07
2022-11-20T10:13:17.280Z,10.65
2022-11-20T10:16:03.953Z,13.48
2022-11-20T10:18:57.918Z,13.15
2022-11-20T10:21:42.212Z,12.70
2022-11-20T10:24:18.065Z,11.20
2022-11-20T10:27:06.108Z,15.88
2022-11-20T10:29:39.260Z,17.85
2022-11-20T10:32:19.825Z,15.20
2022-11-20T10:34:59.528Z,19.13
2022-11-20T10:37:27.916Z,15.88
2022-11-20T10:40:19.364Z,12.80
2022-11-20T10:42:49.088Z,14.38
2022-11-20T10:45:24.871Z,9.75
2022-11-20T10:48:10.268Z,10.80
2022-11-20T10:50:45.627Z,11.75
2022-11-20T10:53:49.438Z,12.90
2022-11-20T10:56:23.812Z,15.32
2022-11-20T10:58:59.407Z,14.27
2022-11-20T11:01:27.584Z,21.83
2022-11-20T11:03:57.167Z,30.17
2022-11-20T11:06:47.768Z,38.97
2022-11-20T11:09:22.692Z,11.95
2022-11-20T11:11:49.536Z,13.20
2022-11-20T11:14:16.830Z,12.23
2022-11-20T11:16:54.939Z,14.13
2022-11-20T11:19:22.171Z,13.32
2022-11-20T11:21:55.631Z,11.52
2022-11-20T11:24:45.999Z,10.77
2022-11-20T11:27:17.321Z,9.15
2022-11-20T11:29:45.005Z,13.57
2022-11-20T11:32:20.629Z,12.90
2022-11-20T11:35:02.415Z,12.73
2022-11-20T11:37:35.958Z,12.13
2022-11-20T11:40:23.532Z,11.75
2022-11-20T11:42:55.902Z,14.18
2022-11-20T11:45:22.742Z,12.75
2022-11-20T11:47:52.727Z,11.45
2022-11-20T11:50:22.977Z,12.45
2022-11-20T11:53:13.992Z,9.88
2022-11-20T11:56:09.566Z,9.68
2022-11-20T11:58:52.093Z,8.52
2022-11-20T12:01:18.686Z,9.23
2022-11-20T12:04:03.358Z,12.90
2022-11-20T12:06:32.629Z,10.60
2022-11-20T12:09:06.350Z,10.50
2022-11-20T12:11:46.428Z,9.98
2022-11-20T12:14:41.032Z,8.60
2022-11-20T12:17:12.297Z,10.43
2022-11-20T12:19:38.922Z,8.50
2022-11-20T12:22:14.790Z,7.90
2022-11-20T12:24:47.659Z,8.85
2022-11-20T12:27:42.280Z,13.27
2022-11-20T12:30:11.870Z,17.58
2022-11-20T12:33:06.139Z,10.40
2022-11-20T12:36:06.937Z,8.85
2022-11-20T12:38:36.556Z,7.38
2022-11-20T12:41:06.101Z,7.43
2022-11-20T12:44:03.238Z,6.78
2022-11-20T12:46:59.973Z,9.32
2022-11-20T12:49:43.304Z,8.38
2022-11-20T12:52:35.564Z,8.38
2022-11-20T12:55:36.054Z,8.52
2022-11-20T12:58:24.192Z,7.38
2022-11-20T13:01:01.860Z,9.20
2022-11-20T13:03:54.446Z,10.15
2022-11-20T13:06:23.407Z,11.05
2022-11-20T13:08:57.419Z,6.45
2022-11-20T13:11:44.144Z,7.97
2022-11-20T13:14:41.260Z,12.82
2022-11-20T13:17:19.066Z,10.10
2022-11-20T13:19:55.865Z,9.55
2022-11-20T13:22:31.279Z,7.75
2022-11-20T13:24:58.054Z,6.90
2022-11-20T13:27:25.403Z,11.15
2022-11-20T13:30:16.346Z,9.45
2022-11-20T13:32:57.828Z,8.18
2022-11-20T13:35:36.412Z,7.47
2022-11-20T13:38:14.811Z,8.88
2022-11-20T13:40:57.342Z,8.07
2022-11-20T13:43:29.965Z,8.60
2022-11-20T13:46:02.476Z,9.55
2022-11-20T13:48:39.165Z,8.65
2022-11-20T13:51:27.078Z,8.68
2022-11-20T13:54:15.025Z,10.45
2022-11-20T13:56:49.947Z,9.30
2022-11-20T13:59:34.117Z,11.52
2022-11-20T14:02:02.197Z,11.45
2022-11-20T14:04:36.247Z,9.43
2022-11-20T14:07:07.571Z,11.00
2022-11-20T14:09:35.152Z,11.80
2022-11-20T14:12:04.370Z,10.90
2022-11-20T14:14:33.650Z,10.85
2022-11-20T14:17:29.638Z,10.13
2022-11-20T14:20:04.926Z,9.18
2022-11-20T14:22:31.747Z,8.43
2022-11-20T14:25:03.330Z,9.82
2022-11-20T14:27:30.267Z,15.25
2022-11-20T14:29:57.013Z,11.25
2022-11-20T14:39:32.155Z,11.30
2022-11-20T14:41:59.140Z,8.95
2022-11-20T14:44:32.929Z,12.13
2022-11-20T14:47:01.334Z,9.50
2022-11-20T14:49:31.002Z,10.35
2022-11-20T14:52:01.874Z,12.63
2022-11-20T14:54:29.357Z,10.52
2022-11-20T15:02:09.243Z,9.18
2022-11-20T15:04:46.067Z,11.13
2022-11-20T15:07:11.986Z,12.60
2022-11-20T15:09:38.738Z,18.25
2022-11-20T15:12:05.026Z,16.88
2022-11-20T15:14:32.975Z,11.63
2022-11-20T15:16:59.897Z,14.85
2022-11-20T15:24:46.321Z,12.02
2022-11-20T15:27:12.503Z,12.07
2022-11-20T15:29:38.482Z,23.45
2022-11-20T15:32:07.979Z,18.80
2022-11-20T15:34:38.055Z,13.35
2022-11-20T15:37:04.007Z,15.23
2022-11-20T15:39:29.852Z,16.20
2022-11-20T15:46:54.317Z,15.00
2022-11-20T15:49:21.976Z,23.48
2022-11-20T15:51:49.961Z,19.38
2022-11-20T15:54:22.013Z,15.45
2022-11-20T15:56:49.887Z,14.55
2022-11-20T15:59:15.921Z,17.17
2022-11-20T16:01:42.369Z,19.02
2022-11-20T16:09:20.589Z,17.85
2022-11-20T16:11:46.628Z,13.60
2022-11-20T16:14:31.278Z,14.65
2022-11-20T16:16:57.236Z,12.63
2022-11-20T16:19:23.052Z,13.95
2022-11-20T16:21:48.983Z,16.98
2022-11-20T16:24:16.332Z,14.70
2022-11-20T18:31:10.830Z,22.23
2022-11-20T18:33:37.952Z,30.25
2022-11-20T18:36:22.400Z,19.92
2022-11-20T18:38:51.843Z,19.88
2022-11-20T18:41:39.209Z,22.20
2022-11-20T18:44:30.392Z,26.08
2022-11-20T18:46:57.219Z,22.73
2022-11-20T18:49:23.950Z,25.35
2022-11-20T18:51:50.660Z,25.55
2022-11-20T18:54:17.477Z,30.00
2022-11-20T18:56:44.083Z,24.60
2022-11-20T18:59:12.701Z,27.08
2022-11-20T19:01:39.483Z,27.50
2022-11-20T19:04:08.308Z,36.42
2022-11-20T19:06:36.118Z,29.92
2022-11-20T19:09:05.125Z,25.55
2022-11-20T19:11:32.607Z,30.05
2022-11-20T19:13:59.281Z,26.02
2022-11-20T19:16:26.402Z,25.40
2022-11-20T19:18:54.758Z,30.70
2022-11-20T19:21:24.731Z,33.90
2022-11-20T19:23:53.897Z,22.17
2022-11-20T19:26:21.675Z,25.08
2022-11-20T19:28:48.459Z,30.88
2022-11-20T19:31:26.840Z,20.48
2022-11-20T19:34:02.676Z,19.23
2022-11-20T19:36:32.807Z,23.58
2022-11-20T19:39:00.188Z,19.05
2022-11-20T19:41:31.656Z,17.60
2022-11-20T19:44:03.882Z,14.40
2022-11-20T19:46:32.238Z,22.67
2022-11-20T19:48:59.218Z,19.70
2022-11-20T19:51:29.873Z,22.23
2022-11-20T19:53:58.413Z,20.25
2022-11-20T19:56:26.600Z,25.75
2022-11-20T19:58:54.441Z,24.42
2022-11-20T20:01:23.975Z,24.38
2022-11-20T20:03:51.488Z,27.75
2022-11-20T20:06:21.276Z,26.13
2022-11-20T20:09:00.800Z,28.92
2022-11-20T20:11:29.923Z,24.48
2022-11-20T20:13:58.989Z,24.58
2022-11-20T20:16:26.612Z,27.20
2022-11-20T20:18:58.230Z,25.63
2022-11-20T20:21:25.002Z,24.70
2022-11-20T20:23:53.886Z,25.65
2022-11-20T20:26:22.154Z,28.23
2022-11-20T20:28:49.390Z,38.88
2022-11-20T20:31:21.874Z,33.60
2022-11-20T20:33:48.892Z,38.88
2022-11-20T20:36:18.085Z,24.27
2022-11-20T20:38:46.023Z,19.17
2022-11-20T20:41:14.255Z,20.75
2022-11-20T20:44:00.200Z,21.23
2022-11-20T20:46:26.789Z,22.45
2022-11-20T20:48:54.952Z,19.67
2022-11-20T20:51:22.484Z,25.13
2022-11-20T20:53:50.157Z,26.85
2022-11-20T20:56:17.798Z,30.08
2022-11-20T20:58:44.453Z,28.42
2022-11-20T21:01:13.634Z,26.83
2022-11-20T21:03:40.891Z,23.48
2022-11-20T21:06:12.161Z,23.48
2022-11-20T21:08:40.887Z,22.83
2022-11-20T21:11:10.639Z,22.23
2022-11-20T21:13:39.422Z,24.77
2022-11-20T21:16:06.965Z,21.63
2022-11-20T21:18:34.284Z,23.02
2022-11-20T21:21:23.046Z,22.30
2022-11-20T21:23:49.942Z,19.35
2022-11-20T21:26:17.389Z,17.98
2022-11-20T21:28:44.154Z,19.38
2022-11-20T21:31:15.325Z,17.05
2022-11-20T21:33:43.877Z,15.13
2022-11-20T21:36:12.336Z,17.80
2022-11-20T21:38:39.488Z,17.13
2022-11-20T21:41:08.158Z,17.95
2022-11-20T21:43:34.841Z,16.40
2022-11-20T21:46:04.132Z,17.00
2022-11-20T21:48:32.318Z,18.13
2022-11-20T21:51:06.793Z,15.55
2022-11-20T21:53:34.536Z,16.17
2022-11-20T21:56:01.623Z,14.73
2022-11-20T21:58:28.262Z,15.45
2022-11-20T22:00:55.105Z,18.67
2022-11-20T22:03:22.047Z,15.57
2022-11-20T22:05:58.785Z,15.52
2022-11-20T22:08:26.112Z,14.80
2022-11-20T22:10:57.023Z,19.08
2022-11-20T22:13:44.014Z,17.77
2022-11-20T22:16:11.460Z,17.60
2022-11-20T22:18:45.439Z,18.58
2022-11-20T22:21:13.237Z,17.45
2022-11-20T22:23:40.178Z,19.92
2022-11-20T22:26:10.306Z,16.13
2022-11-20T22:28:37.473Z,14.52
2022-11-20T22:31:06.658Z,15.73
2022-11-20T22:33:34.384Z,19.70
2022-11-20T22:36:05.782Z,15.45
2022-11-20T22:38:38.872Z,18.08
2022-11-20T22:41:11.110Z,17.02
2022-11-20T22:43:38.645Z,16.00
2022-11-20T22:46:15.260Z,13.20
2022-11-20T22:48:44.808Z,15.70
2022-11-20T22:51:14.317Z,14.77
2022-11-20T22:53:44.403Z,16.65
2022-11-20T22:56:13.211Z,14.93
2022-11-20T22:58:42.225Z,17.30
2022-11-20T23:01:20.711Z,16.20
2022-11-20T23:03:49.211Z,15.60
2022-11-20T23:06:18.557Z,18.95
2022-11-20T23:08:46.121Z,12.52
2022-11-20T23:11:15.964Z,16.13
2022-11-20T23:13:43.556Z,14.23
2022-11-20T23:16:14.024Z,12.90
2022-11-20T23:18:41.153Z,15.68
2022-11-20T23:21:13.320Z,11.80
2022-11-20T23:23:40.424Z,12.18
2022-11-20T23:26:10.343Z,14.63
2022-11-20T23:28:38.241Z,10.88
2022-11-20T23:31:05.654Z,14.40
2022-11-20T23:33:35.592Z,10.48
2022-11-20T23:36:02.272Z,12.23
2022-11-20T23:38:28.882Z,11.57
2022-11-20T23:40:55.425Z,10.00
2022-11-20T23:43:23.081Z,9.98
2022-11-20T23:45:51.840Z,12.50
2022-11-20T23:48:19.668Z,13.52
2022-11-20T23:50:46.695Z,13.02
2022-11-20T23:53:14.500Z,9.10
2022-11-20T23:55:46.227Z,12.95
2022-11-20T23:58:13.775Z,10.50
